Centre Island, New York
Current Conditions -  °F | °C
As of 3:53 AM on Thursday 18 Dec 2014 (Local Time) from KFRG Reporting Station
Overcast Overcast  
Wind Chill: 32°   Ceiling: 8000
Heat Index: 40°   Visibility: 10mi
Dew Point: 25°   Wind: 14mph
Humidity: 55%   Direction: 310°NW
Pressure: 29.88"   Gusts: 26mph
Location:  40.8615°N, 73.5265°W
Report Text: KFRG 180853Z AUTO 31012G23KT 10SM FEW060 OVC080 04/M04 A2988 RMK AO2 PK WND 30030/0813 SLP120 T00441039 51012
Loading
Personal Weather Stations






























Interactive Weather Map New forecast layout! Learn more

10-Day Weather Forecast

Advertisements
Track Severe Weather on mobile